Time;durP1;ratioP1;P1;durP2;ratioP2;P2;SDS_P1;SDS_P2;PMS_P1;PMS_P2;Temp;Humidity;BMP_temperature;BMP_pressure;BME280_temperature;BME280_humidity;BME280_pressure;Samples;Min_cycle;Max_cycle;Signal;HPM_P1;HPM_P2
2022/09/03 00:01:57;;;;;;;17.80;12.30;;;16.60;41.40;;;;;;5712409;25;20054;-91
2022/09/03 00:04:52;;;;;;;20.60;12.77;;;16.60;41.50;;;;;;5706209;25;20085;-91
2022/09/03 00:07:53;;;;;;;20.25;12.90;;;16.50;41.60;;;;;;5707976;25;20136;-93
2022/09/03 00:10:46;;;;;;;18.45;12.13;;;16.50;41.70;;;;;;5686973;25;20050;-94
2022/09/03 00:13:34;;;;;;;21.92;11.90;;;16.50;41.70;;;;;;5678644;25;20113;-92
2022/09/03 00:16:02;;;;;;;20.27;12.35;;;16.50;41.50;;;;;;5678471;25;20059;-92
2022/09/03 00:18:30;;;;;;;17.45;11.32;;;16.40;41.40;;;;;;5677722;25;20073;-89
2022/09/03 00:21:07;;;;;;;17.52;12.25;;;16.40;41.70;;;;;;5679226;25;20069;-91
2022/09/03 00:23:37;;;;;;;22.92;12.60;;;16.40;41.80;;;;;;5680346;25;20050;-92
2022/09/03 00:26:12;;;;;;;21.08;11.98;;;16.40;41.80;;;;;;5705561;25;20061;-93
2022/09/03 00:28:50;;;;;;;20.20;13.05;;;16.40;42.10;;;;;;5707780;25;20116;-93
2022/09/03 00:31:28;;;;;;;18.00;12.00;;;16.40;41.90;;;;;;5689883;25;20046;-91
2022/09/03 00:34:01;;;;;;;22.35;12.45;;;16.30;42.10;;;;;;5684228;25;20050;-91
2022/09/03 00:36:34;;;;;;;19.95;12.90;;;16.40;42.10;;;;;;5662941;25;20097;-90
2022/09/03 00:39:01;;;;;;;19.17;11.80;;;16.30;42.00;;;;;;5685298;25;20102;-91
2022/09/03 00:41:43;;;;;;;21.70;13.52;;;16.30;42.00;;;;;;5648955;25;20057;-90
2022/09/03 00:44:47;;;;;;;18.42;12.18;;;16.30;42.10;;;;;;5686030;25;20460;-90
2022/09/03 00:47:52;;;;;;;20.60;12.15;;;16.30;42.50;;;;;;5681841;25;20058;-92
2022/09/03 00:50:46;;;;;;;23.92;12.02;;;16.20;42.40;;;;;;5675314;25;20424;-92
2022/09/03 00:53:25;;;;;;;18.67;11.55;;;16.20;42.60;;;;;;5683386;25;20123;-91
2022/09/03 00:56:14;;;;;;;15.63;10.25;;;16.20;42.40;;;;;;5663508;25;20147;-91
2022/09/03 00:58:42;;;;;;;17.23;10.13;;;16.20;42.40;;;;;;5663880;25;20101;-90
2022/09/03 01:01:29;;;;;;;17.02;11.35;;;16.10;42.40;;;;;;5663461;25;20089;-91
2022/09/03 01:04:06;;;;;;;18.98;10.77;;;16.10;42.50;;;;;;5666073;25;20173;-91
2022/09/03 01:06:42;;;;;;;16.48;11.30;;;16.10;42.50;;;;;;5681967;25;20065;-92
2022/09/03 01:09:19;;;;;;;17.23;11.75;;;16.10;42.50;;;;;;5660904;25;20556;-91
2022/09/03 01:11:58;;;;;;;19.40;11.52;;;16.10;42.60;;;;;;5664029;25;20074;-91
2022/09/03 01:14:49;;;;;;;20.60;12.98;;;16.00;42.70;;;;;;5691239;25;20058;-90
2022/09/03 01:17:25;;;;;;;19.55;13.15;;;16.00;43.00;;;;;;5671167;25;20113;-91
2022/09/03 01:19:57;;;;;;;20.27;14.40;;;16.00;43.00;;;;;;5664972;25;20517;-91
2022/09/03 01:22:45;;;;;;;24.58;15.32;;;16.00;43.10;;;;;;5667406;25;20058;-92
2022/09/03 01:25:14;;;;;;;26.25;15.23;;;16.00;43.40;;;;;;5668447;25;20054;-91
2022/09/03 01:28:05;;;;;;;19.15;14.88;;;15.90;43.50;;;;;;5666652;25;20073;-93
2022/09/03 01:30:33;;;;;;;25.48;15.23;;;15.90;43.90;;;;;;5625404;25;20508;-92
2022/09/03 01:33:10;;;;;;;21.20;15.07;;;16.00;43.80;;;;;;5645192;25;20081;-90
2022/09/03 01:35:43;;;;;;;;;;;15.90;43.70;;;;;;5653862;25;20058;-92
2022/09/03 01:38:22;;;;;;;22.42;14.50;;;16.00;43.80;;;;;;5653209;25;19950;-93
2022/09/03 01:44:24;;;;;;;21.02;13.48;;;15.90;43.80;;;;;;5654350;25;20058;-94
2022/09/03 01:47:10;;;;;;;18.38;14.10;;;15.90;43.90;;;;;;5695102;25;20062;-94
2022/09/03 01:50:09;;;;;;;20.50;14.27;;;15.90;43.90;;;;;;5698633;24;20058;-95
2022/09/03 01:53:03;;;;;;;20.00;13.57;;;15.90;43.90;;;;;;5711422;25;20084;-94
2022/09/03 01:55:43;;;;;;;19.42;12.85;;;15.80;43.90;;;;;;5701140;25;20046;-92
2022/09/03 01:58:26;;;;;;;17.00;12.60;;;15.80;44.00;;;;;;5720482;25;20105;-93
2022/09/03 02:00:57;;;;;;;19.40;13.02;;;15.80;44.20;;;;;;5698167;25;20413;-91
2022/09/03 02:03:24;;;;;;;19.02;12.60;;;15.80;44.20;;;;;;5699952;25;20057;-91
2022/09/03 02:05:52;;;;;;;15.90;11.52;;;15.80;44.50;;;;;;5697948;25;20050;-92
2022/09/03 02:08:19;;;;;;;16.75;11.55;;;15.80;44.50;;;;;;5701200;25;20046;-95
2022/09/03 02:19:38;;;;;;;24.17;15.55;;;15.80;44.80;;;;;;5718245;25;20058;-92
2022/09/03 02:22:05;;;;;;;23.42;14.65;;;15.80;44.80;;;;;;5694470;25;20054;-94
2022/09/03 02:24:35;;;;;;;21.95;13.70;;;15.80;45.10;;;;;;5694367;25;20060;-94
2022/09/03 02:27:01;;;;;;;21.80;14.85;;;15.90;45.30;;;;;;5669736;25;20102;-94
2022/09/03 02:29:28;;;;;;;19.65;13.82;;;15.90;45.30;;;;;;5693307;25;20081;-94
2022/09/03 02:31:57;;;;;;;21.52;13.95;;;15.90;45.40;;;;;;5687614;25;20053;-93
2022/09/03 02:34:26;;;;;;;18.63;14.00;;;16.00;45.40;;;;;;5667696;25;20112;-95
2022/09/03 02:36:53;;;;;;;17.73;13.73;;;16.00;45.30;;;;;;5670866;25;20065;-93
2022/09/03 02:39:27;;;;;;;20.10;14.18;;;16.10;45.20;;;;;;5670555;25;20062;-93
2022/09/03 02:41:56;;;;;;;19.00;14.00;;;16.10;45.20;;;;;;5667497;25;20054;-92
2022/09/03 02:44:30;;;;;;;20.10;13.55;;;16.10;45.10;;;;;;5665957;25;20480;-93
2022/09/03 02:47:04;;;;;;;16.60;12.45;;;16.10;45.20;;;;;;5687068;25;20088;-94
2022/09/03 02:49:31;;;;;;;19.20;12.85;;;16.20;45.40;;;;;;5664880;25;20050;-94
2022/09/03 02:51:59;;;;;;;;;;;16.20;45.30;;;;;;5686596;25;20090;-95
2022/09/03 02:54:27;;;;;;;13.85;11.05;;;16.20;45.30;;;;;;5687154;25;19945;-94
2022/09/03 02:56:54;;;;;;;15.10;10.63;;;16.30;45.10;;;;;;5692294;25;20070;-93
2022/09/03 02:59:27;;;;;;;16.58;10.38;;;16.30;45.10;;;;;;5669622;25;20046;-93
2022/09/03 03:01:56;;;;;;;12.38;10.15;;;16.30;45.30;;;;;;5694336;25;20043;-95
2022/09/03 03:04:24;;;;;;;12.90;10.35;;;16.40;45.40;;;;;;5693471;25;20057;-93
2022/09/03 03:06:50;;;;;;;14.32;9.60;;;16.40;45.30;;;;;;5675278;25;20046;-93
2022/09/03 03:09:17;;;;;;;14.23;9.68;;;16.40;45.30;;;;;;5657851;25;20065;-94
2022/09/03 03:11:45;;;;;;;14.52;10.00;;;16.40;45.50;;;;;;5656819;25;20084;-93
2022/09/03 03:14:12;;;;;;;12.98;9.82;;;16.50;45.50;;;;;;5694597;25;20054;-94
2022/09/03 03:16:43;;;;;;;18.17;9.93;;;16.50;45.20;;;;;;5696231;25;20060;-94
2022/09/03 03:19:10;;;;;;;12.07;8.27;;;16.50;45.30;;;;;;5694551;25;20069;-94
2022/09/03 03:21:43;;;;;;;13.88;8.05;;;16.60;45.40;;;;;;5655071;25;20054;-95
2022/09/03 03:24:13;;;;;;;11.55;8.63;;;16.60;45.40;;;;;;5676675;25;20054;-95
2022/09/03 03:26:48;;;;;;;15.82;8.32;;;16.60;45.30;;;;;;5694092;25;20054;-95
2022/09/03 03:29:19;;;;;;;12.50;7.55;;;16.60;45.30;;;;;;5668802;25;20054;-92
2022/09/03 03:31:49;;;;;;;9.75;7.35;;;16.60;45.40;;;;;;5666205;25;20505;-92
2022/09/03 03:34:16;;;;;;;13.63;7.03;;;16.60;45.40;;;;;;5665764;25;20144;-93
2022/09/03 03:36:45;;;;;;;11.65;7.30;;;16.60;45.50;;;;;;5647042;25;20054;-95
2022/09/03 03:39:13;;;;;;;10.85;7.60;;;16.60;45.50;;;;;;5673449;25;20248;-95
2022/09/03 03:41:40;;;;;;;12.50;7.65;;;16.60;45.70;;;;;;5669265;25;20458;-93
2022/09/03 03:44:07;;;;;;;9.23;7.38;;;16.70;45.80;;;;;;5667287;25;20047;-95
2022/09/03 03:46:36;;;;;;;10.10;8.32;;;16.70;45.70;;;;;;5666532;25;20054;-94
2022/09/03 03:49:05;;;;;;;12.02;8.98;;;16.80;45.70;;;;;;5659883;25;20046;-94
2022/09/03 03:51:39;;;;;;;13.55;8.73;;;16.80;45.60;;;;;;5646119;25;20046;-94
2022/09/03 03:54:28;;;;;;;15.05;9.50;;;16.90;45.60;;;;;;5648487;25;20047;-94
2022/09/03 03:57:02;;;;;;;16.08;9.50;;;17.00;45.60;;;;;;5670367;25;20117;-96
2022/09/03 03:59:29;;;;;;;13.68;10.13;;;17.00;45.60;;;;;;5674702;25;20054;-94
2022/09/03 04:02:02;;;;;;;;;;;17.10;45.60;;;;;;5677256;25;20054;-95
2022/09/03 04:04:36;;;;;;;13.98;9.43;;;17.20;45.40;;;;;;5698017;25;19989;-96
2022/09/03 04:07:28;;;;;;;16.95;10.75;;;17.30;45.10;;;;;;5660130;25;20148;-95
2022/09/03 04:10:03;;;;;;;15.50;10.07;;;17.50;45.00;;;;;;5697401;25;20065;-96
2022/09/03 04:12:30;;;;;;;14.55;10.35;;;17.60;44.80;;;;;;5672602;25;20050;-95
2022/09/03 04:14:57;;;;;;;14.35;10.38;;;17.70;44.80;;;;;;5671267;25;20121;-96
2022/09/03 04:17:27;;;;;;;13.45;9.77;;;17.90;45.10;;;;;;5688845;25;20050;-96
2022/09/03 04:19:54;;;;;;;16.88;10.15;;;18.20;45.00;;;;;;5687853;25;20548;-95
2022/09/03 04:22:33;;;;;;;16.85;11.27;;;18.50;44.30;;;;;;5666760;25;20050;-96
2022/09/03 04:25:01;;;;;;;16.20;10.15;;;18.80;43.40;;;;;;5696210;25;20054;-96
2022/09/03 04:28:02;;;;;;;14.52;8.93;;;19.10;42.30;;;;;;5699036;25;20061;-96
2022/09/03 04:31:24;;;;;;;12.85;9.23;;;19.20;41.60;;;;;;5607657;25;20098;-95
2022/09/03 04:34:05;;;;;;;18.25;9.85;;;19.30;41.20;;;;;;5693513;25;20078;-94
2022/09/03 04:36:46;;;;;;;15.63;9.90;;;19.50;41.10;;;;;;5693454;25;20046;-96
2022/09/03 04:39:13;;;;;;;17.40;11.00;;;19.60;40.30;;;;;;5676203;25;20054;-95
2022/09/03 04:41:40;;;;;;;21.10;13.43;;;19.70;40.00;;;;;;5667895;25;20053;-96
2022/09/03 04:44:15;;;;;;;21.25;12.98;;;19.80;39.20;;;;;;5708391;25;20059;-94
2022/09/03 05:09:29;;;;;;;5.97;4.38;;;21.30;35.90;;;;;;5695040;24;20077;-96
2022/09/03 06:13:03;;;;;;;8.77;6.85;;;32.40;18.30;;;;;;5733722;24;20076;-96
2022/09/03 06:51:48;;;;;;;4.90;3.00;;;42.20;10.20;;;;;;5736610;25;20475;-93
2022/09/03 06:54:24;;;;;;;2.65;2.45;;;42.80;9.60;;;;;;5690525;25;20053;-94
2022/09/03 06:56:57;;;;;;;;;;;43.20;8.90;;;;;;5672919;25;20064;-92
2022/09/03 06:59:29;;;;;;;3.00;2.13;;;43.60;9.20;;;;;;5684331;25;19972;-94
2022/09/03 07:02:02;;;;;;;3.17;2.10;;;44.30;8.90;;;;;;5672899;25;20045;-92
2022/09/03 07:04:34;;;;;;;2.17;1.30;;;44.80;8.00;;;;;;5689772;25;20057;-92
2022/09/03 07:07:12;;;;;;;2.13;1.27;;;45.40;7.60;;;;;;5667765;25;20046;-92
2022/09/03 07:09:44;;;;;;;2.42;1.30;;;45.40;7.00;;;;;;5680397;24;20168;-92
2022/09/03 07:12:18;;;;;;;2.80;1.63;;;45.60;6.90;;;;;;5660831;24;20049;-91
2022/09/03 07:14:56;;;;;;;1.05;1.05;;;46.00;6.80;;;;;;5668695;25;20057;-96
2022/09/03 07:17:38;;;;;;;;;;;46.40;6.30;;;;;;5711277;25;20050;-96
2022/09/03 07:20:05;;;;;;;2.15;1.13;;;46.30;6.40;;;;;;5707916;25;19937;-95
2022/09/03 07:22:39;;;;;;;1.58;1.00;;;46.30;6.20;;;;;;5705293;25;20045;-96
2022/09/03 07:25:06;;;;;;;2.53;1.05;;;46.00;5.80;;;;;;5748241;24;20500;-93
2022/09/03 07:27:34;;;;;;;2.78;1.00;;;45.20;6.10;;;;;;5684455;25;20053;-95
2022/09/03 07:30:01;;;;;;;2.55;1.10;;;44.40;6.70;;;;;;5678909;25;20046;-94
2022/09/03 07:32:28;;;;;;;0.88;0.88;;;44.00;7.20;;;;;;5678885;25;20046;-93
2022/09/03 07:34:56;;;;;;;5.50;1.50;;;44.30;7.10;;;;;;5711484;25;20042;-92
2022/09/03 07:37:25;;;;;;;2.90;1.50;;;44.70;7.10;;;;;;5682033;25;20046;-94
2022/09/03 07:39:55;;;;;;;3.80;1.30;;;45.20;7.00;;;;;;5700299;25;20109;-95
2022/09/03 07:42:21;;;;;;;1.88;1.00;;;45.90;6.50;;;;;;5722543;25;20050;-92
2022/09/03 07:44:48;;;;;;;1.40;1.08;;;45.60;6.20;;;;;;5682171;25;20054;-95
2022/09/03 07:47:17;;;;;;;2.67;1.15;;;45.60;6.40;;;;;;5706669;25;20057;-92
2022/09/03 07:49:43;;;;;;;3.97;1.50;;;46.20;6.40;;;;;;5682777;25;20169;-96
2022/09/03 07:52:10;;;;;;;13.50;1.70;;;46.70;6.00;;;;;;5658836;25;20050;-94
2022/09/03 07:54:37;;;;;;;3.08;1.60;;;47.20;5.80;;;;;;5723260;25;20101;-95
2022/09/03 07:57:04;;;;;;;1.30;1.20;;;47.80;5.50;;;;;;5661296;25;20068;-92
2022/09/03 07:59:31;;;;;;;2.20;1.50;;;48.20;4.80;;;;;;5680817;25;20050;-95
2022/09/03 08:01:58;;;;;;;3.17;1.50;;;48.10;4.90;;;;;;5658201;25;20056;-93
2022/09/03 08:06:59;;;;;;;4.10;1.30;;;48.50;4.80;;;;;;5707737;25;20058;-94
2022/09/03 08:09:28;;;;;;;3.15;1.52;;;48.70;4.50;;;;;;5682327;25;20468;-93
2022/09/03 08:11:54;;;;;;;1.38;1.10;;;48.60;4.40;;;;;;5706655;25;20062;-94
2022/09/03 08:14:22;;;;;;;3.50;1.30;;;48.30;4.40;;;;;;5665799;25;20046;-93
2022/09/03 08:16:50;;;;;;;2.00;1.30;;;48.10;4.60;;;;;;5683895;25;20109;-95
2022/09/03 08:19:18;;;;;;;2.60;1.40;;;47.90;4.60;;;;;;5665315;25;20050;-96
2022/09/03 08:21:45;;;;;;;4.50;1.50;;;47.90;4.70;;;;;;5689346;25;20440;-95
2022/09/03 08:24:16;;;;;;;2.15;1.40;;;48.00;4.90;;;;;;5695307;25;20041;-93
2022/09/03 08:26:47;;;;;;;2.67;1.50;;;48.30;4.50;;;;;;5697642;25;20046;-93
2022/09/03 08:29:13;;;;;;;2.78;1.50;;;48.50;4.70;;;;;;5693397;25;20050;-93
2022/09/03 08:31:40;;;;;;;4.03;1.92;;;48.30;4.60;;;;;;5693778;24;20042;-93
2022/09/03 08:34:06;;;;;;;4.22;1.40;;;48.30;4.70;;;;;;5672500;25;20154;-95
2022/09/03 08:36:36;;;;;;;2.55;1.60;;;48.60;4.50;;;;;;5676136;25;20041;-91
2022/09/03 08:39:08;;;;;;;1.85;1.00;;;48.90;4.40;;;;;;5708336;25;20047;-92
2022/09/03 08:41:56;;;;;;;7.07;1.85;;;49.00;4.00;;;;;;5691568;25;20042;-93
2022/09/03 08:44:48;;;;;;;2.50;1.35;;;49.10;4.30;;;;;;5695205;25;20093;-92
2022/09/03 08:47:30;;;;;;;3.72;1.60;;;49.10;4.30;;;;;;5673065;25;20049;-93
2022/09/03 08:50:02;;;;;;;3.72;1.80;;;48.90;4.60;;;;;;5712239;25;20057;-91
2022/09/03 08:52:47;;;;;;;2.30;1.60;;;48.80;4.50;;;;;;5712998;25;20042;-94
2022/09/03 09:17:55;;;;;;;;;;;49.20;3.80;;;;;;3056550;38;146813;-92
2022/09/03 09:20:45;;;;;;;1.83;1.52;;;47.20;4.60;;;;;;3400156;42;20012;-93
2022/09/03 09:23:52;;;;;;;2.72;1.75;;;46.40;5.20;;;;;;3388088;42;20156;-94
2022/09/03 09:26:58;;;;;;;2.95;1.90;;;46.10;5.40;;;;;;3402257;42;20079;-96
2022/09/03 09:29:37;;;;;;;2.53;1.92;;;46.00;5.40;;;;;;3386116;42;20098;-91
2022/09/03 09:32:07;;;;;;;1.58;1.48;;;46.10;5.30;;;;;;3386662;42;20097;-93
